Terminal Aerodrome Forecast
Issued by NWS

Home | Current Version | Previous Version | Text Only | Print | Product List | Glossary On
Versions: 1 2 3 4 5 6 7 8 9 10 11 12 13 14 15 16 17 18 19 20 21 22 23 24
000
FTAK31 PAFA 251730
TAFAOR
TAF
PAOR 251730Z 2518/2618 VRB05KT P6SM VCSH BKN070
     FM252100 32012KT 6SM -SHRA OVC060=

USA.gov is the U.S. government's official web portal to all federal, state and local government web resources and services.